sensor_id;sensor_type;location;lat;lon;timestamp;P1;durP1;ratioP1;P2;durP2;ratioP2
44728;SDS011;30457;53.590;9.922;2023-07-29T00:03:09;5.05;;;3.28;;
44728;SDS011;30457;53.590;9.922;2023-07-29T00:07:35;3.38;;;2.80;;
44728;SDS011;30457;53.590;9.922;2023-07-29T00:12:00;4.13;;;2.70;;
44728;SDS011;30457;53.590;9.922;2023-07-29T00:16:26;3.95;;;2.92;;
44728;SDS011;30457;53.590;9.922;2023-07-29T00:20:51;4.80;;;2.60;;
44728;SDS011;30457;53.590;9.922;2023-07-29T00:25:17;4.43;;;3.53;;
44728;SDS011;30457;53.590;9.922;2023-07-29T00:29:42;5.25;;;2.60;;
44728;SDS011;30457;53.590;9.922;2023-07-29T00:34:08;5.18;;;3.70;;
44728;SDS011;30457;53.590;9.922;2023-07-29T00:38:34;5.80;;;3.22;;
44728;SDS011;30457;53.590;9.922;2023-07-29T00:43:00;5.32;;;3.30;;
44728;SDS011;30457;53.590;9.922;2023-07-29T00:47:26;6.43;;;3.45;;
44728;SDS011;30457;53.590;9.922;2023-07-29T00:51:51;4.45;;;3.20;;
44728;SDS011;30457;53.590;9.922;2023-07-29T00:56:17;4.53;;;3.53;;
44728;SDS011;30457;53.590;9.922;2023-07-29T01:00:43;6.30;;;3.20;;
44728;SDS011;30457;53.590;9.922;2023-07-29T01:05:08;4.47;;;3.35;;
44728;SDS011;30457;53.590;9.922;2023-07-29T01:09:44;4.32;;;3.35;;
44728;SDS011;30457;53.590;9.922;2023-07-29T01:19:20;4.20;;;2.97;;
44728;SDS011;30457;53.590;9.922;2023-07-29T01:23:57;3.97;;;2.88;;
44728;SDS011;30457;53.590;9.922;2023-07-29T01:28:24;4.72;;;3.28;;
44728;SDS011;30457;53.590;9.922;2023-07-29T01:32:53;3.30;;;2.88;;
44728;SDS011;30457;53.590;9.922;2023-07-29T01:37:25;3.83;;;3.10;;
44728;SDS011;30457;53.590;9.922;2023-07-29T01:41:55;3.70;;;2.78;;
44728;SDS011;30457;53.590;9.922;2023-07-29T01:46:20;5.72;;;3.03;;
44728;SDS011;30457;53.590;9.922;2023-07-29T01:50:47;5.15;;;2.83;;
44728;SDS011;30457;53.590;9.922;2023-07-29T01:55:12;4.25;;;3.20;;
44728;SDS011;30457;53.590;9.922;2023-07-29T01:59:38;5.13;;;3.40;;
44728;SDS011;30457;53.590;9.922;2023-07-29T02:04:03;5.05;;;2.90;;
44728;SDS011;30457;53.590;9.922;2023-07-29T02:08:29;5.57;;;3.85;;
44728;SDS011;30457;53.590;9.922;2023-07-29T02:12:55;5.78;;;3.72;;
44728;SDS011;30457;53.590;9.922;2023-07-29T02:17:20;4.05;;;3.33;;
44728;SDS011;30457;53.590;9.922;2023-07-29T02:21:46;3.80;;;3.45;;
44728;SDS011;30457;53.590;9.922;2023-07-29T02:26:12;4.35;;;3.20;;
44728;SDS011;30457;53.590;9.922;2023-07-29T02:30:40;3.63;;;3.33;;
44728;SDS011;30457;53.590;9.922;2023-07-29T02:35:06;4.13;;;3.08;;
44728;SDS011;30457;53.590;9.922;2023-07-29T02:39:32;4.63;;;3.33;;
44728;SDS011;30457;53.590;9.922;2023-07-29T02:43:58;4.70;;;3.55;;
44728;SDS011;30457;53.590;9.922;2023-07-29T02:48:24;4.30;;;3.35;;
44728;SDS011;30457;53.590;9.922;2023-07-29T02:52:50;4.82;;;3.92;;
44728;SDS011;30457;53.590;9.922;2023-07-29T02:57:17;4.75;;;3.58;;
44728;SDS011;30457;53.590;9.922;2023-07-29T03:01:42;4.57;;;4.18;;
44728;SDS011;30457;53.590;9.922;2023-07-29T03:06:09;4.00;;;3.70;;
44728;SDS011;30457;53.590;9.922;2023-07-29T03:10:35;6.80;;;4.65;;
44728;SDS011;30457;53.590;9.922;2023-07-29T03:15:01;4.80;;;4.32;;
44728;SDS011;30457;53.590;9.922;2023-07-29T03:19:28;4.38;;;3.92;;
44728;SDS011;30457;53.590;9.922;2023-07-29T03:23:54;12.15;;;5.60;;
44728;SDS011;30457;53.590;9.922;2023-07-29T03:28:20;4.85;;;4.35;;
44728;SDS011;30457;53.590;9.922;2023-07-29T03:32:45;5.13;;;3.95;;
44728;SDS011;30457;53.590;9.922;2023-07-29T03:37:11;4.57;;;4.03;;
44728;SDS011;30457;53.590;9.922;2023-07-29T03:41:36;4.05;;;3.40;;
44728;SDS011;30457;53.590;9.922;2023-07-29T03:46:02;4.45;;;3.60;;
44728;SDS011;30457;53.590;9.922;2023-07-29T03:50:28;4.53;;;3.95;;
44728;SDS011;30457;53.590;9.922;2023-07-29T03:54:54;5.40;;;4.28;;
44728;SDS011;30457;53.590;9.922;2023-07-29T03:59:20;6.32;;;4.85;;
44728;SDS011;30457;53.590;9.922;2023-07-29T04:03:47;8.07;;;5.85;;
44728;SDS011;30457;53.590;9.922;2023-07-29T04:08:16;7.57;;;5.32;;
44728;SDS011;30457;53.590;9.922;2023-07-29T04:12:43;13.82;;;6.32;;
44728;SDS011;30457;53.590;9.922;2023-07-29T04:17:08;8.38;;;6.88;;
44728;SDS011;30457;53.590;9.922;2023-07-29T04:21:34;8.85;;;6.70;;
44728;SDS011;30457;53.590;9.922;2023-07-29T04:25:59;12.48;;;8.18;;
44728;SDS011;30457;53.590;9.922;2023-07-29T04:30:25;13.25;;;8.18;;
44728;SDS011;30457;53.590;9.922;2023-07-29T04:34:51;14.75;;;9.75;;
44728;SDS011;30457;53.590;9.922;2023-07-29T04:39:16;14.55;;;9.57;;
44728;SDS011;30457;53.590;9.922;2023-07-29T04:43:42;14.23;;;9.43;;
44728;SDS011;30457;53.590;9.922;2023-07-29T04:48:08;11.25;;;8.77;;
44728;SDS011;30457;53.590;9.922;2023-07-29T04:52:34;14.20;;;8.88;;
44728;SDS011;30457;53.590;9.922;2023-07-29T04:56:59;10.70;;;8.15;;
44728;SDS011;30457;53.590;9.922;2023-07-29T05:01:26;13.50;;;9.25;;
44728;SDS011;30457;53.590;9.922;2023-07-29T05:05:52;12.48;;;8.90;;
44728;SDS011;30457;53.590;9.922;2023-07-29T05:10:19;14.80;;;9.52;;
44728;SDS011;30457;53.590;9.922;2023-07-29T05:14:45;16.27;;;9.75;;
44728;SDS011;30457;53.590;9.922;2023-07-29T05:19:11;10.85;;;8.48;;
44728;SDS011;30457;53.590;9.922;2023-07-29T05:23:36;10.88;;;8.25;;
44728;SDS011;30457;53.590;9.922;2023-07-29T05:28:02;11.50;;;8.15;;
44728;SDS011;30457;53.590;9.922;2023-07-29T05:32:28;12.85;;;8.88;;
44728;SDS011;30457;53.590;9.922;2023-07-29T05:36:54;13.32;;;9.63;;
44728;SDS011;30457;53.590;9.922;2023-07-29T05:41:20;11.18;;;8.57;;
44728;SDS011;30457;53.590;9.922;2023-07-29T05:45:46;11.88;;;8.77;;
44728;SDS011;30457;53.590;9.922;2023-07-29T05:50:12;12.20;;;8.93;;
44728;SDS011;30457;53.590;9.922;2023-07-29T05:54:37;12.85;;;8.90;;
44728;SDS011;30457;53.590;9.922;2023-07-29T05:59:03;11.75;;;8.90;;
44728;SDS011;30457;53.590;9.922;2023-07-29T06:03:28;12.77;;;8.80;;
44728;SDS011;30457;53.590;9.922;2023-07-29T06:07:54;13.55;;;9.13;;
44728;SDS011;30457;53.590;9.922;2023-07-29T06:12:19;16.30;;;9.95;;
44728;SDS011;30457;53.590;9.922;2023-07-29T06:16:45;11.30;;;9.38;;
44728;SDS011;30457;53.590;9.922;2023-07-29T06:21:11;11.55;;;8.75;;
44728;SDS011;30457;53.590;9.922;2023-07-29T06:25:41;11.75;;;8.98;;
44728;SDS011;30457;53.590;9.922;2023-07-29T06:30:07;12.57;;;8.95;;
44728;SDS011;30457;53.590;9.922;2023-07-29T06:34:33;11.07;;;8.38;;
44728;SDS011;30457;53.590;9.922;2023-07-29T06:38:58;11.88;;;8.48;;
44728;SDS011;30457;53.590;9.922;2023-07-29T06:43:24;11.23;;;8.43;;
44728;SDS011;30457;53.590;9.922;2023-07-29T06:47:50;14.20;;;8.75;;
44728;SDS011;30457;53.590;9.922;2023-07-29T06:52:15;11.18;;;8.70;;
44728;SDS011;30457;53.590;9.922;2023-07-29T06:56:41;15.13;;;9.25;;
44728;SDS011;30457;53.590;9.922;2023-07-29T07:01:06;10.50;;;8.15;;
44728;SDS011;30457;53.590;9.922;2023-07-29T07:05:32;12.52;;;9.68;;
44728;SDS011;30457;53.590;9.922;2023-07-29T07:09:57;11.43;;;9.18;;
44728;SDS011;30457;53.590;9.922;2023-07-29T07:14:23;12.02;;;9.07;;
44728;SDS011;30457;53.590;9.922;2023-07-29T07:18:48;11.75;;;9.05;;
44728;SDS011;30457;53.590;9.922;2023-07-29T07:23:14;12.50;;;8.65;;
44728;SDS011;30457;53.590;9.922;2023-07-29T07:27:40;13.45;;;9.40;;
44728;SDS011;30457;53.590;9.922;2023-07-29T07:32:06;12.93;;;9.57;;
44728;SDS011;30457;53.590;9.922;2023-07-29T07:36:31;10.80;;;8.45;;
44728;SDS011;30457;53.590;9.922;2023-07-29T07:40:57;10.27;;;7.65;;
44728;SDS011;30457;53.590;9.922;2023-07-29T07:45:22;12.45;;;7.93;;
44728;SDS011;30457;53.590;9.922;2023-07-29T07:49:48;10.48;;;7.85;;
44728;SDS011;30457;53.590;9.922;2023-07-29T07:54:15;12.60;;;8.13;;
44728;SDS011;30457;53.590;9.922;2023-07-29T07:58:41;12.23;;;8.15;;
44728;SDS011;30457;53.590;9.922;2023-07-29T08:03:06;8.70;;;7.28;;
44728;SDS011;30457;53.590;9.922;2023-07-29T08:07:32;11.40;;;7.50;;
44728;SDS011;30457;53.590;9.922;2023-07-29T08:11:57;10.05;;;7.85;;
44728;SDS011;30457;53.590;9.922;2023-07-29T08:16:23;11.07;;;7.57;;
44728;SDS011;30457;53.590;9.922;2023-07-29T08:20:52;9.73;;;8.10;;
44728;SDS011;30457;53.590;9.922;2023-07-29T08:25:19;12.60;;;8.90;;
44728;SDS011;30457;53.590;9.922;2023-07-29T08:29:44;12.02;;;8.77;;
44728;SDS011;30457;53.590;9.922;2023-07-29T08:34:10;11.98;;;8.13;;
44728;SDS011;30457;53.590;9.922;2023-07-29T08:38:36;13.73;;;8.63;;
44728;SDS011;30457;53.590;9.922;2023-07-29T08:43:03;11.32;;;8.43;;
44728;SDS011;30457;53.590;9.922;2023-07-29T08:47:29;11.32;;;9.15;;
44728;SDS011;30457;53.590;9.922;2023-07-29T08:51:55;14.75;;;9.10;;
44728;SDS011;30457;53.590;9.922;2023-07-29T08:56:23;11.02;;;9.18;;
44728;SDS011;30457;53.590;9.922;2023-07-29T09:00:49;10.75;;;9.05;;
44728;SDS011;30457;53.590;9.922;2023-07-29T09:05:15;11.75;;;9.15;;
44728;SDS011;30457;53.590;9.922;2023-07-29T09:09:41;11.93;;;9.18;;
44728;SDS011;30457;53.590;9.922;2023-07-29T09:14:06;10.63;;;9.10;;
44728;SDS011;30457;53.590;9.922;2023-07-29T09:18:32;15.18;;;8.88;;
44728;SDS011;30457;53.590;9.922;2023-07-29T09:22:58;12.50;;;8.85;;
44728;SDS011;30457;53.590;9.922;2023-07-29T09:27:25;10.93;;;9.55;;
44728;SDS011;30457;53.590;9.922;2023-07-29T09:31:52;9.88;;;8.75;;
44728;SDS011;30457;53.590;9.922;2023-07-29T09:36:17;12.57;;;7.82;;
44728;SDS011;30457;53.590;9.922;2023-07-29T09:40:46;8.95;;;8.02;;
44728;SDS011;30457;53.590;9.922;2023-07-29T09:45:12;11.73;;;8.55;;
44728;SDS011;30457;53.590;9.922;2023-07-29T09:49:43;11.48;;;8.65;;
44728;SDS011;30457;53.590;9.922;2023-07-29T09:54:09;9.90;;;7.07;;
44728;SDS011;30457;53.590;9.922;2023-07-29T09:58:37;9.32;;;6.40;;
44728;SDS011;30457;53.590;9.922;2023-07-29T10:03:03;6.20;;;5.22;;
44728;SDS011;30457;53.590;9.922;2023-07-29T10:07:29;7.40;;;6.03;;
44728;SDS011;30457;53.590;9.922;2023-07-29T10:11:55;5.97;;;5.10;;
44728;SDS011;30457;53.590;9.922;2023-07-29T10:16:22;7.35;;;5.40;;
44728;SDS011;30457;53.590;9.922;2023-07-29T10:20:50;5.57;;;4.38;;
44728;SDS011;30457;53.590;9.922;2023-07-29T10:25:17;5.88;;;4.80;;
44728;SDS011;30457;53.590;9.922;2023-07-29T10:29:46;7.13;;;5.18;;
44728;SDS011;30457;53.590;9.922;2023-07-29T10:34:12;5.30;;;4.10;;
44728;SDS011;30457;53.590;9.922;2023-07-29T10:38:39;12.77;;;4.57;;
44728;SDS011;30457;53.590;9.922;2023-07-29T10:43:09;8.98;;;5.03;;
44728;SDS011;30457;53.590;9.922;2023-07-29T10:47:36;6.25;;;3.67;;
44728;SDS011;30457;53.590;9.922;2023-07-29T10:52:02;5.20;;;3.83;;
44728;SDS011;30457;53.590;9.922;2023-07-29T10:56:28;7.72;;;3.70;;
44728;SDS011;30457;53.590;9.922;2023-07-29T11:00:58;4.70;;;3.42;;
44728;SDS011;30457;53.590;9.922;2023-07-29T11:05:23;3.60;;;2.78;;
44728;SDS011;30457;53.590;9.922;2023-07-29T11:14:14;2.40;;;2.20;;
44728;SDS011;30457;53.590;9.922;2023-07-29T11:18:40;2.00;;;1.80;;
44728;SDS011;30457;53.590;9.922;2023-07-29T11:23:07;2.60;;;1.95;;
44728;SDS011;30457;53.590;9.922;2023-07-29T11:27:32;2.72;;;2.38;;
44728;SDS011;30457;53.590;9.922;2023-07-29T11:31:58;2.45;;;1.77;;
44728;SDS011;30457;53.590;9.922;2023-07-29T11:36:23;3.22;;;1.70;;
44728;SDS011;30457;53.590;9.922;2023-07-29T11:40:56;2.88;;;2.05;;
44728;SDS011;30457;53.590;9.922;2023-07-29T11:45:24;2.22;;;1.83;;
44728;SDS011;30457;53.590;9.922;2023-07-29T11:49:49;2.30;;;2.05;;
44728;SDS011;30457;53.590;9.922;2023-07-29T11:54:15;2.30;;;1.83;;
44728;SDS011;30457;53.590;9.922;2023-07-29T11:58:41;2.28;;;2.08;;
44728;SDS011;30457;53.590;9.922;2023-07-29T12:03:07;4.20;;;2.10;;
44728;SDS011;30457;53.590;9.922;2023-07-29T12:07:34;1.95;;;1.75;;
44728;SDS011;30457;53.590;9.922;2023-07-29T12:12:03;1.98;;;1.77;;
44728;SDS011;30457;53.590;9.922;2023-07-29T12:16:30;1.98;;;1.80;;
44728;SDS011;30457;53.590;9.922;2023-07-29T12:20:59;2.13;;;1.45;;
44728;SDS011;30457;53.590;9.922;2023-07-29T12:25:26;2.40;;;2.08;;
44728;SDS011;30457;53.590;9.922;2023-07-29T12:29:52;3.72;;;1.73;;
44728;SDS011;30457;53.590;9.922;2023-07-29T12:34:19;1.67;;;1.58;;
44728;SDS011;30457;53.590;9.922;2023-07-29T12:38:45;1.30;;;1.20;;
44728;SDS011;30457;53.590;9.922;2023-07-29T12:43:10;2.80;;;1.20;;
44728;SDS011;30457;53.590;9.922;2023-07-29T12:47:36;2.10;;;1.05;;
44728;SDS011;30457;53.590;9.922;2023-07-29T12:52:01;1.90;;;1.50;;
44728;SDS011;30457;53.590;9.922;2023-07-29T12:56:27;1.95;;;1.05;;
44728;SDS011;30457;53.590;9.922;2023-07-29T13:00:53;1.30;;;1.20;;
44728;SDS011;30457;53.590;9.922;2023-07-29T13:05:19;1.25;;;1.15;;
44728;SDS011;30457;53.590;9.922;2023-07-29T13:09:45;1.73;;;1.15;;
44728;SDS011;30457;53.590;9.922;2023-07-29T13:14:10;3.03;;;1.10;;
44728;SDS011;30457;53.590;9.922;2023-07-29T13:18:36;1.52;;;1.27;;
44728;SDS011;30457;53.590;9.922;2023-07-29T13:23:01;1.13;;;1.05;;
44728;SDS011;30457;53.590;9.922;2023-07-29T13:27:27;1.20;;;1.10;;
44728;SDS011;30457;53.590;9.922;2023-07-29T13:31:53;1.42;;;1.10;;
44728;SDS011;30457;53.590;9.922;2023-07-29T13:36:19;2.08;;;1.30;;
44728;SDS011;30457;53.590;9.922;2023-07-29T13:40:44;1.73;;;1.52;;
44728;SDS011;30457;53.590;9.922;2023-07-29T13:45:10;2.47;;;1.20;;
44728;SDS011;30457;53.590;9.922;2023-07-29T13:49:36;2.20;;;1.38;;
44728;SDS011;30457;53.590;9.922;2023-07-29T13:54:01;2.67;;;1.42;;
44728;SDS011;30457;53.590;9.922;2023-07-29T13:58:27;3.20;;;1.25;;
44728;SDS011;30457;53.590;9.922;2023-07-29T14:02:52;5.05;;;1.33;;
44728;SDS011;30457;53.590;9.922;2023-07-29T14:07:18;2.75;;;1.45;;
44728;SDS011;30457;53.590;9.922;2023-07-29T14:11:44;1.65;;;1.33;;
44728;SDS011;30457;53.590;9.922;2023-07-29T14:16:09;1.50;;;1.30;;
44728;SDS011;30457;53.590;9.922;2023-07-29T14:20:35;1.50;;;1.40;;
44728;SDS011;30457;53.590;9.922;2023-07-29T14:25:00;1.65;;;1.55;;
44728;SDS011;30457;53.590;9.922;2023-07-29T14:29:26;1.15;;;1.05;;
44728;SDS011;30457;53.590;9.922;2023-07-29T14:33:51;1.27;;;1.17;;
44728;SDS011;30457;53.590;9.922;2023-07-29T14:38:17;1.50;;;1.10;;
44728;SDS011;30457;53.590;9.922;2023-07-29T14:42:42;1.92;;;1.10;;
44728;SDS011;30457;53.590;9.922;2023-07-29T14:47:08;1.35;;;1.10;;
44728;SDS011;30457;53.590;9.922;2023-07-29T14:51:34;2.17;;;1.45;;
44728;SDS011;30457;53.590;9.922;2023-07-29T14:56:00;1.08;;;0.95;;
44728;SDS011;30457;53.590;9.922;2023-07-29T15:00:25;1.48;;;1.30;;
44728;SDS011;30457;53.590;9.922;2023-07-29T15:04:51;2.85;;;1.30;;
44728;SDS011;30457;53.590;9.922;2023-07-29T15:09:17;1.70;;;1.10;;
44728;SDS011;30457;53.590;9.922;2023-07-29T15:13:43;1.92;;;1.20;;
44728;SDS011;30457;53.590;9.922;2023-07-29T15:18:08;1.10;;;1.00;;
44728;SDS011;30457;53.590;9.922;2023-07-29T15:22:34;1.33;;;1.23;;
44728;SDS011;30457;53.590;9.922;2023-07-29T15:26:59;1.10;;;1.00;;
44728;SDS011;30457;53.590;9.922;2023-07-29T15:31:25;1.00;;;0.80;;
44728;SDS011;30457;53.590;9.922;2023-07-29T15:35:51;1.35;;;1.25;;
44728;SDS011;30457;53.590;9.922;2023-07-29T15:40:17;1.13;;;1.10;;
44728;SDS011;30457;53.590;9.922;2023-07-29T15:44:43;1.40;;;1.30;;
44728;SDS011;30457;53.590;9.922;2023-07-29T15:49:08;1.58;;;1.30;;
44728;SDS011;30457;53.590;9.922;2023-07-29T15:53:34;1.23;;;1.10;;
44728;SDS011;30457;53.590;9.922;2023-07-29T15:57:59;1.90;;;1.58;;
44728;SDS011;30457;53.590;9.922;2023-07-29T16:02:25;2.03;;;1.70;;
44728;SDS011;30457;53.590;9.922;2023-07-29T16:06:51;1.10;;;1.10;;
44728;SDS011;30457;53.590;9.922;2023-07-29T16:11:16;1.40;;;1.30;;
44728;SDS011;30457;53.590;9.922;2023-07-29T16:15:42;3.13;;;1.20;;
44728;SDS011;30457;53.590;9.922;2023-07-29T16:20:08;1.58;;;0.60;;
44728;SDS011;30457;53.590;9.922;2023-07-29T16:24:34;2.92;;;0.65;;
44728;SDS011;30457;53.590;9.922;2023-07-29T16:28:59;0.75;;;0.68;;
44728;SDS011;30457;53.590;9.922;2023-07-29T16:33:25;0.70;;;0.70;;
44728;SDS011;30457;53.590;9.922;2023-07-29T16:37:50;2.17;;;0.70;;
44728;SDS011;30457;53.590;9.922;2023-07-29T16:42:16;2.35;;;0.80;;
44728;SDS011;30457;53.590;9.922;2023-07-29T16:46:41;1.98;;;0.70;;
44728;SDS011;30457;53.590;9.922;2023-07-29T16:51:07;1.83;;;0.90;;
44728;SDS011;30457;53.590;9.922;2023-07-29T16:55:35;1.63;;;0.73;;
44728;SDS011;30457;53.590;9.922;2023-07-29T17:00:01;1.95;;;0.80;;
44728;SDS011;30457;53.590;9.922;2023-07-29T17:04:27;2.08;;;1.00;;
44728;SDS011;30457;53.590;9.922;2023-07-29T17:08:52;1.60;;;0.80;;
44728;SDS011;30457;53.590;9.922;2023-07-29T17:13:18;1.98;;;0.90;;
44728;SDS011;30457;53.590;9.922;2023-07-29T17:17:45;1.25;;;0.80;;
44728;SDS011;30457;53.590;9.922;2023-07-29T17:22:11;1.48;;;0.95;;
44728;SDS011;30457;53.590;9.922;2023-07-29T17:26:37;1.20;;;0.70;;
44728;SDS011;30457;53.590;9.922;2023-07-29T17:31:02;2.17;;;1.08;;
44728;SDS011;30457;53.590;9.922;2023-07-29T17:35:29;1.00;;;0.90;;
44728;SDS011;30457;53.590;9.922;2023-07-29T17:39:55;11.32;;;2.30;;
44728;SDS011;30457;53.590;9.922;2023-07-29T17:44:21;1.10;;;1.00;;
44728;SDS011;30457;53.590;9.922;2023-07-29T17:48:46;1.42;;;1.15;;
44728;SDS011;30457;53.590;9.922;2023-07-29T17:53:12;3.38;;;1.50;;
44728;SDS011;30457;53.590;9.922;2023-07-29T17:57:37;3.30;;;1.30;;
44728;SDS011;30457;53.590;9.922;2023-07-29T18:02:04;4.25;;;1.13;;
44728;SDS011;30457;53.590;9.922;2023-07-29T18:06:31;5.15;;;1.63;;
44728;SDS011;30457;53.590;9.922;2023-07-29T18:10:56;1.73;;;1.15;;
44728;SDS011;30457;53.590;9.922;2023-07-29T18:15:22;1.95;;;1.23;;
44728;SDS011;30457;53.590;9.922;2023-07-29T18:19:48;3.00;;;1.73;;
44728;SDS011;30457;53.590;9.922;2023-07-29T18:24:13;2.92;;;1.15;;
44728;SDS011;30457;53.590;9.922;2023-07-29T18:28:39;5.35;;;1.25;;
44728;SDS011;30457;53.590;9.922;2023-07-29T18:33:04;1.48;;;1.30;;
44728;SDS011;30457;53.590;9.922;2023-07-29T18:37:31;2.95;;;1.25;;
44728;SDS011;30457;53.590;9.922;2023-07-29T18:41:56;1.50;;;1.23;;
44728;SDS011;30457;53.590;9.922;2023-07-29T18:46:22;10.52;;;1.50;;
44728;SDS011;30457;53.590;9.922;2023-07-29T18:50:48;2.83;;;1.30;;
44728;SDS011;30457;53.590;9.922;2023-07-29T18:55:13;1.30;;;1.05;;
44728;SDS011;30457;53.590;9.922;2023-07-29T18:59:39;3.30;;;1.40;;
44728;SDS011;30457;53.590;9.922;2023-07-29T19:04:05;3.40;;;1.05;;
44728;SDS011;30457;53.590;9.922;2023-07-29T19:08:30;2.03;;;1.20;;
44728;SDS011;30457;53.590;9.922;2023-07-29T19:12:56;2.17;;;1.25;;
44728;SDS011;30457;53.590;9.922;2023-07-29T19:17:22;2.45;;;1.77;;
44728;SDS011;30457;53.590;9.922;2023-07-29T19:21:47;1.75;;;1.25;;
44728;SDS011;30457;53.590;9.922;2023-07-29T19:26:14;3.00;;;1.38;;
44728;SDS011;30457;53.590;9.922;2023-07-29T19:30:45;3.05;;;1.70;;
44728;SDS011;30457;53.590;9.922;2023-07-29T19:35:11;3.35;;;1.40;;
44728;SDS011;30457;53.590;9.922;2023-07-29T19:39:38;1.70;;;1.40;;
44728;SDS011;30457;53.590;9.922;2023-07-29T19:44:04;2.55;;;1.35;;
44728;SDS011;30457;53.590;9.922;2023-07-29T19:48:30;1.85;;;1.20;;
44728;SDS011;30457;53.590;9.922;2023-07-29T19:52:55;1.63;;;1.30;;
44728;SDS011;30457;53.590;9.922;2023-07-29T19:57:21;4.63;;;1.30;;
44728;SDS011;30457;53.590;9.922;2023-07-29T20:01:46;1.95;;;1.20;;
44728;SDS011;30457;53.590;9.922;2023-07-29T20:06:12;3.08;;;2.15;;
44728;SDS011;30457;53.590;9.922;2023-07-29T20:10:37;1.77;;;1.10;;
44728;SDS011;30457;53.590;9.922;2023-07-29T20:15:03;2.75;;;1.20;;
44728;SDS011;30457;53.590;9.922;2023-07-29T20:19:29;2.60;;;1.27;;
44728;SDS011;30457;53.590;9.922;2023-07-29T20:23:55;2.53;;;1.08;;
44728;SDS011;30457;53.590;9.922;2023-07-29T20:28:21;1.30;;;1.20;;
44728;SDS011;30457;53.590;9.922;2023-07-29T20:32:47;1.45;;;1.30;;
44728;SDS011;30457;53.590;9.922;2023-07-29T20:37:12;1.52;;;1.42;;
44728;SDS011;30457;53.590;9.922;2023-07-29T20:41:38;4.18;;;1.50;;
44728;SDS011;30457;53.590;9.922;2023-07-29T20:46:03;2.03;;;1.30;;
44728;SDS011;30457;53.590;9.922;2023-07-29T20:50:29;3.42;;;1.95;;
44728;SDS011;30457;53.590;9.922;2023-07-29T20:54:54;1.40;;;1.30;;
44728;SDS011;30457;53.590;9.922;2023-07-29T20:59:20;2.38;;;1.70;;
44728;SDS011;30457;53.590;9.922;2023-07-29T21:03:46;2.40;;;1.65;;
44728;SDS011;30457;53.590;9.922;2023-07-29T21:08:12;3.13;;;1.92;;
44728;SDS011;30457;53.590;9.922;2023-07-29T21:12:37;3.00;;;2.15;;
44728;SDS011;30457;53.590;9.922;2023-07-29T21:17:03;2.08;;;1.85;;
44728;SDS011;30457;53.590;9.922;2023-07-29T21:21:28;3.75;;;2.40;;
44728;SDS011;30457;53.590;9.922;2023-07-29T21:25:54;2.90;;;2.10;;
44728;SDS011;30457;53.590;9.922;2023-07-29T21:30:19;4.72;;;1.70;;
44728;SDS011;30457;53.590;9.922;2023-07-29T21:34:45;3.05;;;1.63;;
44728;SDS011;30457;53.590;9.922;2023-07-29T21:39:10;2.63;;;1.30;;
44728;SDS011;30457;53.590;9.922;2023-07-29T21:43:36;2.38;;;1.60;;
44728;SDS011;30457;53.590;9.922;2023-07-29T21:48:02;2.08;;;1.70;;
44728;SDS011;30457;53.590;9.922;2023-07-29T21:52:27;3.70;;;1.42;;
44728;SDS011;30457;53.590;9.922;2023-07-29T21:56:53;5.07;;;1.95;;
44728;SDS011;30457;53.590;9.922;2023-07-29T22:01:19;1.50;;;1.25;;
44728;SDS011;30457;53.590;9.922;2023-07-29T22:05:45;1.98;;;1.55;;
44728;SDS011;30457;53.590;9.922;2023-07-29T22:10:10;3.10;;;1.83;;
44728;SDS011;30457;53.590;9.922;2023-07-29T22:14:36;4.38;;;1.42;;
44728;SDS011;30457;53.590;9.922;2023-07-29T22:19:01;2.92;;;1.40;;
44728;SDS011;30457;53.590;9.922;2023-07-29T22:23:27;2.95;;;1.40;;
44728;SDS011;30457;53.590;9.922;2023-07-29T22:27:52;4.10;;;1.25;;
44728;SDS011;30457;53.590;9.922;2023-07-29T22:32:18;1.52;;;1.42;;
44728;SDS011;30457;53.590;9.922;2023-07-29T22:36:44;4.97;;;1.85;;
44728;SDS011;30457;53.590;9.922;2023-07-29T22:41:09;9.05;;;1.50;;
44728;SDS011;30457;53.590;9.922;2023-07-29T22:45:35;3.03;;;2.00;;
44728;SDS011;30457;53.590;9.922;2023-07-29T22:50:00;4.97;;;2.10;;
44728;SDS011;30457;53.590;9.922;2023-07-29T22:54:26;3.97;;;1.55;;
44728;SDS011;30457;53.590;9.922;2023-07-29T22:58:51;3.88;;;1.73;;
44728;SDS011;30457;53.590;9.922;2023-07-29T23:03:17;3.15;;;1.77;;
44728;SDS011;30457;53.590;9.922;2023-07-29T23:07:43;1.85;;;1.63;;
44728;SDS011;30457;53.590;9.922;2023-07-29T23:12:08;2.75;;;2.08;;
44728;SDS011;30457;53.590;9.922;2023-07-29T23:16:34;3.42;;;1.80;;
44728;SDS011;30457;53.590;9.922;2023-07-29T23:20:59;1.85;;;1.73;;
44728;SDS011;30457;53.590;9.922;2023-07-29T23:25:25;4.82;;;1.80;;
44728;SDS011;30457;53.590;9.922;2023-07-29T23:29:51;4.38;;;2.13;;
44728;SDS011;30457;53.590;9.922;2023-07-29T23:34:16;3.65;;;1.63;;
44728;SDS011;30457;53.590;9.922;2023-07-29T23:38:42;3.00;;;2.03;;
44728;SDS011;30457;53.590;9.922;2023-07-29T23:43:07;2.45;;;1.90;;
44728;SDS011;30457;53.590;9.922;2023-07-29T23:47:33;4.22;;;2.35;;
44728;SDS011;30457;53.590;9.922;2023-07-29T23:51:58;2.55;;;2.13;;
44728;SDS011;30457;53.590;9.922;2023-07-29T23:56:24;3.83;;;2.20;;
